sensor_id;sensor_type;location;lat;lon;timestamp;temperature;humidity
68609;SHT31;55581;46.718;7.690;2023-08-24T00:01:16;24.53;68.02
68609;SHT31;55581;46.718;7.690;2023-08-24T00:03:44;24.55;67.97
68609;SHT31;55581;46.718;7.690;2023-08-24T00:06:11;24.40;68.52
68609;SHT31;55581;46.718;7.690;2023-08-24T00:08:36;24.36;69.21
68609;SHT31;55581;46.718;7.690;2023-08-24T00:11:04;24.26;68.95
68609;SHT31;55581;46.718;7.690;2023-08-24T00:13:31;24.10;69.68
68609;SHT31;55581;46.718;7.690;2023-08-24T00:15:56;24.02;70.39
68609;SHT31;55581;46.718;7.690;2023-08-24T00:18:24;23.85;70.65
68609;SHT31;55581;46.718;7.690;2023-08-24T00:20:52;23.75;70.93
68609;SHT31;55581;46.718;7.690;2023-08-24T00:23:17;23.71;71.18
68609;SHT31;55581;46.718;7.690;2023-08-24T00:25:43;23.66;71.87
68609;SHT31;55581;46.718;7.690;2023-08-24T00:28:09;23.87;71.32
68609;SHT31;55581;46.718;7.690;2023-08-24T00:30:36;23.98;70.40
68609;SHT31;55581;46.718;7.690;2023-08-24T00:33:02;24.01;70.37
68609;SHT31;55581;46.718;7.690;2023-08-24T00:35:27;23.98;70.19
68609;SHT31;55581;46.718;7.690;2023-08-24T00:37:52;23.97;70.24
68609;SHT31;55581;46.718;7.690;2023-08-24T00:40:21;24.02;69.50
68609;SHT31;55581;46.718;7.690;2023-08-24T00:42:46;24.00;69.74
68609;SHT31;55581;46.718;7.690;2023-08-24T00:45:12;24.05;68.50
68609;SHT31;55581;46.718;7.690;2023-08-24T00:47:43;23.98;69.24
68609;SHT31;55581;46.718;7.690;2023-08-24T00:50:09;23.93;69.81
68609;SHT31;55581;46.718;7.690;2023-08-24T00:52:40;23.87;69.72
68609;SHT31;55581;46.718;7.690;2023-08-24T00:55:06;23.74;70.26
68609;SHT31;55581;46.718;7.690;2023-08-24T00:57:32;23.67;70.50
68609;SHT31;55581;46.718;7.690;2023-08-24T01:00:04;23.83;69.16
68609;SHT31;55581;46.718;7.690;2023-08-24T01:02:37;23.98;68.93
68609;SHT31;55581;46.718;7.690;2023-08-24T01:05:03;24.02;68.75
68609;SHT31;55581;46.718;7.690;2023-08-24T01:07:31;23.97;69.18
68609;SHT31;55581;46.718;7.690;2023-08-24T01:09:57;24.02;69.73
68609;SHT31;55581;46.718;7.690;2023-08-24T01:17:39;23.74;69.84
68609;SHT31;55581;46.718;7.690;2023-08-24T01:20:06;23.55;71.04
68609;SHT31;55581;46.718;7.690;2023-08-24T01:25:06;23.23;71.91
68609;SHT31;55581;46.718;7.690;2023-08-24T01:27:35;23.16;72.40
68609;SHT31;55581;46.718;7.690;2023-08-24T01:30:02;23.07;72.24
68609;SHT31;55581;46.718;7.690;2023-08-24T01:32:35;23.29;70.31
68609;SHT31;55581;46.718;7.690;2023-08-24T01:35:02;23.38;70.91
68609;SHT31;55581;46.718;7.690;2023-08-24T01:37:30;23.30;71.62
68609;SHT31;55581;46.718;7.690;2023-08-24T01:40:07;23.23;71.68
68609;SHT31;55581;46.718;7.690;2023-08-24T01:42:56;23.22;71.06
68609;SHT31;55581;46.718;7.690;2023-08-24T01:45:25;23.28;70.30
68609;SHT31;55581;46.718;7.690;2023-08-24T01:47:53;23.50;68.66
68609;SHT31;55581;46.718;7.690;2023-08-24T01:50:22;23.60;68.11
68609;SHT31;55581;46.718;7.690;2023-08-24T01:52:48;23.60;69.02
68609;SHT31;55581;46.718;7.690;2023-08-24T01:55:18;23.52;69.49
68609;SHT31;55581;46.718;7.690;2023-08-24T01:57:43;23.39;69.91
68609;SHT31;55581;46.718;7.690;2023-08-24T02:00:09;23.38;69.05
68609;SHT31;55581;46.718;7.690;2023-08-24T02:02:38;23.47;65.76
68609;SHT31;55581;46.718;7.690;2023-08-24T02:05:04;23.59;65.48
68609;SHT31;55581;46.718;7.690;2023-08-24T02:07:31;23.57;67.12
68609;SHT31;55581;46.718;7.690;2023-08-24T02:09:57;23.57;67.10
68609;SHT31;55581;46.718;7.690;2023-08-24T02:12:22;23.50;67.96
68609;SHT31;55581;46.718;7.690;2023-08-24T02:14:48;23.39;68.79
68609;SHT31;55581;46.718;7.690;2023-08-24T02:17:16;23.45;69.09
68609;SHT31;55581;46.718;7.690;2023-08-24T02:19:41;23.50;68.90
68609;SHT31;55581;46.718;7.690;2023-08-24T02:22:07;23.43;69.13
68609;SHT31;55581;46.718;7.690;2023-08-24T02:24:35;23.41;69.21
68609;SHT31;55581;46.718;7.690;2023-08-24T02:27:03;23.41;68.23
68609;SHT31;55581;46.718;7.690;2023-08-24T02:29:28;23.36;68.19
68609;SHT31;55581;46.718;7.690;2023-08-24T02:31:55;23.35;68.30
68609;SHT31;55581;46.718;7.690;2023-08-24T02:34:20;23.30;68.98
68609;SHT31;55581;46.718;7.690;2023-08-24T02:36:46;23.30;68.58
68609;SHT31;55581;46.718;7.690;2023-08-24T02:39:11;23.33;67.97
68609;SHT31;55581;46.718;7.690;2023-08-24T02:41:36;23.20;69.25
68609;SHT31;55581;46.718;7.690;2023-08-24T02:44:02;23.15;69.51
68609;SHT31;55581;46.718;7.690;2023-08-24T02:46:28;22.97;69.61
68609;SHT31;55581;46.718;7.690;2023-08-24T02:48:56;22.83;70.47
68609;SHT31;55581;46.718;7.690;2023-08-24T02:51:22;22.65;71.70
68609;SHT31;55581;46.718;7.690;2023-08-24T02:53:49;22.42;71.72
68609;SHT31;55581;46.718;7.690;2023-08-24T02:56:14;22.46;71.47
68609;SHT31;55581;46.718;7.690;2023-08-24T02:58:42;22.43;71.59
68609;SHT31;55581;46.718;7.690;2023-08-24T03:01:07;22.52;71.54
68609;SHT31;55581;46.718;7.690;2023-08-24T03:03:33;22.57;71.23
68609;SHT31;55581;46.718;7.690;2023-08-24T03:06:01;22.60;71.21
68609;SHT31;55581;46.718;7.690;2023-08-24T03:08:30;22.68;70.82
68609;SHT31;55581;46.718;7.690;2023-08-24T03:10:57;22.68;70.78
68609;SHT31;55581;46.718;7.690;2023-08-24T03:13:25;22.68;70.78
68609;SHT31;55581;46.718;7.690;2023-08-24T03:15:53;22.63;70.61
68609;SHT31;55581;46.718;7.690;2023-08-24T03:18:18;22.68;70.12
68609;SHT31;55581;46.718;7.690;2023-08-24T03:20:45;22.74;69.52
68609;SHT31;55581;46.718;7.690;2023-08-24T03:23:11;22.83;68.40
68609;SHT31;55581;46.718;7.690;2023-08-24T03:25:41;22.83;68.43
68609;SHT31;55581;46.718;7.690;2023-08-24T03:28:08;22.94;67.03
68609;SHT31;55581;46.718;7.690;2023-08-24T03:30:35;23.16;65.44
68609;SHT31;55581;46.718;7.690;2023-08-24T03:33:03;23.35;66.02
68609;SHT31;55581;46.718;7.690;2023-08-24T03:35:30;23.39;66.24
68609;SHT31;55581;46.718;7.690;2023-08-24T03:37:56;23.25;67.64
68609;SHT31;55581;46.718;7.690;2023-08-24T03:40:21;23.12;67.44
68609;SHT31;55581;46.718;7.690;2023-08-24T03:42:47;22.95;68.05
68609;SHT31;55581;46.718;7.690;2023-08-24T03:45:15;22.78;68.97
68609;SHT31;55581;46.718;7.690;2023-08-24T03:47:40;22.60;69.35
68609;SHT31;55581;46.718;7.690;2023-08-24T03:50:06;22.54;70.31
68609;SHT31;55581;46.718;7.690;2023-08-24T03:52:34;22.46;70.87
68609;SHT31;55581;46.718;7.690;2023-08-24T03:54:59;22.33;71.14
68609;SHT31;55581;46.718;7.690;2023-08-24T03:57:25;22.28;71.11
68609;SHT31;55581;46.718;7.690;2023-08-24T03:59:50;22.19;72.50
68609;SHT31;55581;46.718;7.690;2023-08-24T04:02:16;22.12;70.80
68609;SHT31;55581;46.718;7.690;2023-08-24T04:04:46;22.05;69.26
68609;SHT31;55581;46.718;7.690;2023-08-24T04:07:12;22.01;70.40
68609;SHT31;55581;46.718;7.690;2023-08-24T04:09:37;21.84;71.02
68609;SHT31;55581;46.718;7.690;2023-08-24T04:12:02;21.74;70.38
68609;SHT31;55581;46.718;7.690;2023-08-24T04:14:28;21.58;70.43
68609;SHT31;55581;46.718;7.690;2023-08-24T04:16:55;21.53;69.92
68609;SHT31;55581;46.718;7.690;2023-08-24T04:19:21;21.47;70.27
68609;SHT31;55581;46.718;7.690;2023-08-24T04:21:49;21.44;70.31
68609;SHT31;55581;46.718;7.690;2023-08-24T04:24:14;21.39;70.42
68609;SHT31;55581;46.718;7.690;2023-08-24T04:26:40;21.42;70.44
68609;SHT31;55581;46.718;7.690;2023-08-24T04:29:07;21.44;71.24
68609;SHT31;55581;46.718;7.690;2023-08-24T04:31:33;21.42;71.08
68609;SHT31;55581;46.718;7.690;2023-08-24T04:34:00;21.47;71.25
68609;SHT31;55581;46.718;7.690;2023-08-24T04:36:26;21.57;70.10
68609;SHT31;55581;46.718;7.690;2023-08-24T04:38:51;21.57;71.88
68609;SHT31;55581;46.718;7.690;2023-08-24T04:41:17;21.51;71.08
68609;SHT31;55581;46.718;7.690;2023-08-24T04:43:42;21.49;71.04
68609;SHT31;55581;46.718;7.690;2023-08-24T04:46:10;21.47;71.44
68609;SHT31;55581;46.718;7.690;2023-08-24T04:48:35;21.46;71.35
68609;SHT31;55581;46.718;7.690;2023-08-24T04:51:01;21.44;70.89
68609;SHT31;55581;46.718;7.690;2023-08-24T04:53:27;21.44;70.67
68609;SHT31;55581;46.718;7.690;2023-08-24T04:55:53;21.32;71.25
68609;SHT31;55581;46.718;7.690;2023-08-24T04:58:18;21.23;70.35
68609;SHT31;55581;46.718;7.690;2023-08-24T05:00:44;21.26;69.87
68609;SHT31;55581;46.718;7.690;2023-08-24T05:03:09;21.30;69.49
68609;SHT31;55581;46.718;7.690;2023-08-24T05:05:36;21.30;69.53
68609;SHT31;55581;46.718;7.690;2023-08-24T05:08:03;21.39;68.94
68609;SHT31;55581;46.718;7.690;2023-08-24T05:10:34;21.39;69.24
68609;SHT31;55581;46.718;7.690;2023-08-24T05:13:00;21.20;69.35
68609;SHT31;55581;46.718;7.690;2023-08-24T05:15:26;21.29;68.40
68609;SHT31;55581;46.718;7.690;2023-08-24T05:17:51;21.30;68.31
68609;SHT31;55581;46.718;7.690;2023-08-24T05:20:22;21.32;68.02
68609;SHT31;55581;46.718;7.690;2023-08-24T05:22:48;21.36;68.01
68609;SHT31;55581;46.718;7.690;2023-08-24T05:25:13;21.42;67.88
68609;SHT31;55581;46.718;7.690;2023-08-24T05:27:41;21.46;67.50
68609;SHT31;55581;46.718;7.690;2023-08-24T05:30:09;21.44;68.81
68609;SHT31;55581;46.718;7.690;2023-08-24T05:32:39;21.43;67.51
68609;SHT31;55581;46.718;7.690;2023-08-24T05:35:05;21.46;69.19
68609;SHT31;55581;46.718;7.690;2023-08-24T05:37:31;21.40;68.41
68609;SHT31;55581;46.718;7.690;2023-08-24T05:40:00;21.37;69.95
68609;SHT31;55581;46.718;7.690;2023-08-24T05:42:25;21.47;69.21
68609;SHT31;55581;46.718;7.690;2023-08-24T05:44:51;21.46;69.56
68609;SHT31;55581;46.718;7.690;2023-08-24T05:47:16;21.46;69.14
68609;SHT31;55581;46.718;7.690;2023-08-24T05:49:42;21.44;69.93
68609;SHT31;55581;46.718;7.690;2023-08-24T05:52:07;21.43;69.35
68609;SHT31;55581;46.718;7.690;2023-08-24T05:54:37;21.40;69.79
68609;SHT31;55581;46.718;7.690;2023-08-24T05:57:03;21.46;69.27
68609;SHT31;55581;46.718;7.690;2023-08-24T05:59:32;21.54;69.91
68609;SHT31;55581;46.718;7.690;2023-08-24T06:02:00;21.49;70.16
68609;SHT31;55581;46.718;7.690;2023-08-24T06:04:26;21.53;73.26
68609;SHT31;55581;46.718;7.690;2023-08-24T06:06:53;21.55;72.26
68609;SHT31;55581;46.718;7.690;2023-08-24T06:09:21;21.60;71.91
68609;SHT31;55581;46.718;7.690;2023-08-24T06:11:47;21.42;71.80
68609;SHT31;55581;46.718;7.690;2023-08-24T06:14:12;21.50;71.53
68609;SHT31;55581;46.718;7.690;2023-08-24T06:16:37;21.53;71.54
68609;SHT31;55581;46.718;7.690;2023-08-24T06:19:03;21.57;71.91
68609;SHT31;55581;46.718;7.690;2023-08-24T06:21:28;21.68;71.79
68609;SHT31;55581;46.718;7.690;2023-08-24T06:23:54;21.75;71.56
68609;SHT31;55581;46.718;7.690;2023-08-24T06:26:22;21.81;71.54
68609;SHT31;55581;46.718;7.690;2023-08-24T06:28:48;21.87;71.65
68609;SHT31;55581;46.718;7.690;2023-08-24T06:31:13;21.97;71.99
68609;SHT31;55581;46.718;7.690;2023-08-24T06:33:42;22.01;71.99
68609;SHT31;55581;46.718;7.690;2023-08-24T06:36:07;22.08;71.82
68609;SHT31;55581;46.718;7.690;2023-08-24T06:38:35;22.18;72.09
68609;SHT31;55581;46.718;7.690;2023-08-24T06:41:00;22.23;71.71
68609;SHT31;55581;46.718;7.690;2023-08-24T06:43:27;22.29;70.91
68609;SHT31;55581;46.718;7.690;2023-08-24T06:45:54;22.35;70.53
68609;SHT31;55581;46.718;7.690;2023-08-24T06:48:22;22.49;70.25
68609;SHT31;55581;46.718;7.690;2023-08-24T06:50:48;22.63;69.56
68609;SHT31;55581;46.718;7.690;2023-08-24T06:53:13;22.86;69.13
68609;SHT31;55581;46.718;7.690;2023-08-24T06:55:40;23.14;68.42
68609;SHT31;55581;46.718;7.690;2023-08-24T06:58:05;23.28;68.36
68609;SHT31;55581;46.718;7.690;2023-08-24T07:00:31;23.43;68.02
68609;SHT31;55581;46.718;7.690;2023-08-24T07:02:57;23.50;68.23
68609;SHT31;55581;46.718;7.690;2023-08-24T07:05:23;23.69;67.36
68609;SHT31;55581;46.718;7.690;2023-08-24T07:07:52;23.74;67.61
68609;SHT31;55581;46.718;7.690;2023-08-24T07:10:20;23.83;67.52
68609;SHT31;55581;46.718;7.690;2023-08-24T07:12:46;24.02;66.81
68609;SHT31;55581;46.718;7.690;2023-08-24T07:15:12;24.17;66.64
68609;SHT31;55581;46.718;7.690;2023-08-24T07:17:38;24.24;66.58
68609;SHT31;55581;46.718;7.690;2023-08-24T07:20:04;24.24;65.56
68609;SHT31;55581;46.718;7.690;2023-08-24T07:22:47;24.38;65.63
68609;SHT31;55581;46.718;7.690;2023-08-24T07:25:13;24.49;65.73
68609;SHT31;55581;46.718;7.690;2023-08-24T07:27:40;24.57;65.39
68609;SHT31;55581;46.718;7.690;2023-08-24T07:30:06;24.66;65.39
68609;SHT31;55581;46.718;7.690;2023-08-24T07:32:32;24.76;65.34
68609;SHT31;55581;46.718;7.690;2023-08-24T07:34:57;24.82;65.30
68609;SHT31;55581;46.718;7.690;2023-08-24T07:37:25;24.98;63.93
68609;SHT31;55581;46.718;7.690;2023-08-24T07:39:50;25.08;64.63
68609;SHT31;55581;46.718;7.690;2023-08-24T07:42:21;25.12;67.65
68609;SHT31;55581;46.718;7.690;2023-08-24T07:44:47;25.12;66.83
68609;SHT31;55581;46.718;7.690;2023-08-24T07:47:13;25.22;67.72
68609;SHT31;55581;46.718;7.690;2023-08-24T07:49:39;25.43;66.10
68609;SHT31;55581;46.718;7.690;2023-08-24T07:52:11;25.43;66.93
68609;SHT31;55581;46.718;7.690;2023-08-24T07:54:39;25.48;66.85
68609;SHT31;55581;46.718;7.690;2023-08-24T07:57:05;25.58;66.78
68609;SHT31;55581;46.718;7.690;2023-08-24T07:59:31;25.65;65.86
68609;SHT31;55581;46.718;7.690;2023-08-24T08:01:56;25.75;62.98
68609;SHT31;55581;46.718;7.690;2023-08-24T08:04:22;25.70;63.49
68609;SHT31;55581;46.718;7.690;2023-08-24T08:06:47;25.84;63.80
68609;SHT31;55581;46.718;7.690;2023-08-24T08:09:12;25.86;63.09
68609;SHT31;55581;46.718;7.690;2023-08-24T08:11:38;26.10;61.49
68609;SHT31;55581;46.718;7.690;2023-08-24T08:14:03;26.31;60.31
68609;SHT31;55581;46.718;7.690;2023-08-24T08:16:29;26.38;60.33
68609;SHT31;55581;46.718;7.690;2023-08-24T08:18:54;26.38;60.79
68609;SHT31;55581;46.718;7.690;2023-08-24T08:21:19;26.44;59.52
68609;SHT31;55581;46.718;7.690;2023-08-24T08:23:45;26.65;59.09
68609;SHT31;55581;46.718;7.690;2023-08-24T08:26:11;26.75;58.27
68609;SHT31;55581;46.718;7.690;2023-08-24T08:28:37;26.85;57.79
68609;SHT31;55581;46.718;7.690;2023-08-24T08:31:05;27.04;57.37
68609;SHT31;55581;46.718;7.690;2023-08-24T08:33:31;27.17;57.42
68609;SHT31;55581;46.718;7.690;2023-08-24T08:35:56;27.06;56.67
68609;SHT31;55581;46.718;7.690;2023-08-24T08:38:22;27.27;55.90
68609;SHT31;55581;46.718;7.690;2023-08-24T08:40:51;27.24;55.82
68609;SHT31;55581;46.718;7.690;2023-08-24T08:43:22;27.31;55.90
68609;SHT31;55581;46.718;7.690;2023-08-24T08:45:51;27.24;56.21
68609;SHT31;55581;46.718;7.690;2023-08-24T08:48:17;27.31;56.50
68609;SHT31;55581;46.718;7.690;2023-08-24T08:50:43;27.41;53.73
68609;SHT31;55581;46.718;7.690;2023-08-24T08:53:09;27.34;54.13
68609;SHT31;55581;46.718;7.690;2023-08-24T08:55:34;27.61;54.88
68609;SHT31;55581;46.718;7.690;2023-08-24T08:58:00;27.70;54.77
68609;SHT31;55581;46.718;7.690;2023-08-24T09:00:28;27.66;53.05
68609;SHT31;55581;46.718;7.690;2023-08-24T09:02:56;27.75;53.29
68609;SHT31;55581;46.718;7.690;2023-08-24T09:05:23;27.70;52.58
68609;SHT31;55581;46.718;7.690;2023-08-24T09:07:55;27.75;50.70
68609;SHT31;55581;46.718;7.690;2023-08-24T09:10:23;28.03;52.30
68609;SHT31;55581;46.718;7.690;2023-08-24T09:12:48;28.21;53.32
68609;SHT31;55581;46.718;7.690;2023-08-24T09:15:14;28.33;52.08
68609;SHT31;55581;46.718;7.690;2023-08-24T09:17:43;28.43;51.13
68609;SHT31;55581;46.718;7.690;2023-08-24T09:20:09;28.50;52.53
68609;SHT31;55581;46.718;7.690;2023-08-24T09:22:36;28.55;51.76
68609;SHT31;55581;46.718;7.690;2023-08-24T09:25:02;28.76;50.84
68609;SHT31;55581;46.718;7.690;2023-08-24T09:27:29;28.80;51.30
68609;SHT31;55581;46.718;7.690;2023-08-24T09:29:54;28.96;48.07
68609;SHT31;55581;46.718;7.690;2023-08-24T09:32:32;29.00;47.86
68609;SHT31;55581;46.718;7.690;2023-08-24T09:35:24;29.31;47.39
68609;SHT31;55581;46.718;7.690;2023-08-24T09:37:49;29.27;47.08
68609;SHT31;55581;46.718;7.690;2023-08-24T09:40:24;29.09;48.58
68609;SHT31;55581;46.718;7.690;2023-08-24T09:42:49;29.19;47.52
68609;SHT31;55581;46.718;7.690;2023-08-24T09:45:15;29.12;47.38
68609;SHT31;55581;46.718;7.690;2023-08-24T09:47:50;29.23;48.09
68609;SHT31;55581;46.718;7.690;2023-08-24T09:50:19;29.33;47.04
68609;SHT31;55581;46.718;7.690;2023-08-24T09:52:44;29.43;45.54
68609;SHT31;55581;46.718;7.690;2023-08-24T09:55:12;29.61;44.59
68609;SHT31;55581;46.718;7.690;2023-08-24T09:57:39;29.44;45.35
68609;SHT31;55581;46.718;7.690;2023-08-24T10:00:09;29.60;44.93
68609;SHT31;55581;46.718;7.690;2023-08-24T10:02:51;29.84;45.67
68609;SHT31;55581;46.718;7.690;2023-08-24T10:05:23;29.75;44.38
68609;SHT31;55581;46.718;7.690;2023-08-24T10:07:56;29.88;43.35
68609;SHT31;55581;46.718;7.690;2023-08-24T10:10:26;30.08;42.95
68609;SHT31;55581;46.718;7.690;2023-08-24T10:13:08;30.08;45.27
68609;SHT31;55581;46.718;7.690;2023-08-24T10:15:36;30.36;44.64
68609;SHT31;55581;46.718;7.690;2023-08-24T10:18:02;30.20;45.06
68609;SHT31;55581;46.718;7.690;2023-08-24T10:20:29;30.54;44.21
68609;SHT31;55581;46.718;7.690;2023-08-24T10:22:55;30.08;44.20
68609;SHT31;55581;46.718;7.690;2023-08-24T10:25:22;29.71;45.10
68609;SHT31;55581;46.718;7.690;2023-08-24T10:27:49;29.96;45.60
68609;SHT31;55581;46.718;7.690;2023-08-24T10:30:15;30.17;44.53
68609;SHT31;55581;46.718;7.690;2023-08-24T10:32:42;30.36;44.12
68609;SHT31;55581;46.718;7.690;2023-08-24T10:35:08;30.47;44.20
68609;SHT31;55581;46.718;7.690;2023-08-24T10:37:34;30.12;46.36
68609;SHT31;55581;46.718;7.690;2023-08-24T10:40:00;30.02;47.16
68609;SHT31;55581;46.718;7.690;2023-08-24T10:42:26;30.15;46.41
68609;SHT31;55581;46.718;7.690;2023-08-24T10:44:52;30.53;45.41
68609;SHT31;55581;46.718;7.690;2023-08-24T10:49:56;30.71;44.62
68609;SHT31;55581;46.718;7.690;2023-08-24T10:54:55;30.98;44.04
68609;SHT31;55581;46.718;7.690;2023-08-24T10:57:22;30.78;46.73
68609;SHT31;55581;46.718;7.690;2023-08-24T11:02:40;31.21;44.58
68609;SHT31;55581;46.718;7.690;2023-08-24T11:07:58;31.33;44.00
68609;SHT31;55581;46.718;7.690;2023-08-24T11:10:31;31.62;41.82
68609;SHT31;55581;46.718;7.690;2023-08-24T11:21:03;31.71;42.87
68609;SHT31;55581;46.718;7.690;2023-08-24T11:23:31;31.91;42.64
68609;SHT31;55581;46.718;7.690;2023-08-24T11:26:00;32.17;40.87
68609;SHT31;55581;46.718;7.690;2023-08-24T11:28:30;32.11;42.59
68609;SHT31;55581;46.718;7.690;2023-08-24T11:30:57;32.04;43.93
68609;SHT31;55581;46.718;7.690;2023-08-24T11:33:31;32.11;44.23
68609;SHT31;55581;46.718;7.690;2023-08-24T11:35:57;32.35;41.09
68609;SHT31;55581;46.718;7.690;2023-08-24T11:38:25;32.26;40.74
68609;SHT31;55581;46.718;7.690;2023-08-24T11:40:51;32.28;41.90
68609;SHT31;55581;46.718;7.690;2023-08-24T11:43:26;32.37;41.57
68609;SHT31;55581;46.718;7.690;2023-08-24T11:45:54;32.40;41.76
68609;SHT31;55581;46.718;7.690;2023-08-24T11:48:24;32.72;43.00
68609;SHT31;55581;46.718;7.690;2023-08-24T11:50:51;32.96;40.87
68609;SHT31;55581;46.718;7.690;2023-08-24T11:53:17;33.31;40.09
68609;SHT31;55581;46.718;7.690;2023-08-24T11:55:42;33.24;40.78
68609;SHT31;55581;46.718;7.690;2023-08-24T11:58:17;33.48;39.89
68609;SHT31;55581;46.718;7.690;2023-08-24T12:00:45;33.58;38.07
68609;SHT31;55581;46.718;7.690;2023-08-24T12:03:12;33.85;37.58
68609;SHT31;55581;46.718;7.690;2023-08-24T12:05:42;33.53;39.10
68609;SHT31;55581;46.718;7.690;2023-08-24T12:08:13;33.72;38.43
68609;SHT31;55581;46.718;7.690;2023-08-24T12:10:44;33.61;43.41
68609;SHT31;55581;46.718;7.690;2023-08-24T12:13:12;33.49;44.73
68609;SHT31;55581;46.718;7.690;2023-08-24T12:15:37;33.46;48.34
68609;SHT31;55581;46.718;7.690;2023-08-24T12:18:10;33.34;49.04
68609;SHT31;55581;46.718;7.690;2023-08-24T12:20:35;33.06;47.85
68609;SHT31;55581;46.718;7.690;2023-08-24T12:23:01;32.94;46.40
68609;SHT31;55581;46.718;7.690;2023-08-24T12:25:27;33.34;43.32
68609;SHT31;55581;46.718;7.690;2023-08-24T12:28:07;33.62;41.08
68609;SHT31;55581;46.718;7.690;2023-08-24T12:30:43;33.61;40.71
68609;SHT31;55581;46.718;7.690;2023-08-24T12:33:08;33.69;42.53
68609;SHT31;55581;46.718;7.690;2023-08-24T12:35:34;34.07;40.43
68609;SHT31;55581;46.718;7.690;2023-08-24T12:38:00;34.11;41.27
68609;SHT31;55581;46.718;7.690;2023-08-24T12:40:26;34.17;40.40
68609;SHT31;55581;46.718;7.690;2023-08-24T12:42:52;34.28;41.58
68609;SHT31;55581;46.718;7.690;2023-08-24T12:45:17;34.44;40.90
68609;SHT31;55581;46.718;7.690;2023-08-24T12:47:42;34.18;43.49
68609;SHT31;55581;46.718;7.690;2023-08-24T12:50:08;34.37;41.50
68609;SHT31;55581;46.718;7.690;2023-08-24T12:52:35;34.35;41.87
68609;SHT31;55581;46.718;7.690;2023-08-24T12:55:00;34.33;41.76
68609;SHT31;55581;46.718;7.690;2023-08-24T12:57:26;34.55;43.16
68609;SHT31;55581;46.718;7.690;2023-08-24T12:59:51;34.51;43.07
68609;SHT31;55581;46.718;7.690;2023-08-24T13:02:19;34.49;42.54
68609;SHT31;55581;46.718;7.690;2023-08-24T13:04:44;34.52;41.81
68609;SHT31;55581;46.718;7.690;2023-08-24T13:07:10;34.65;40.24
68609;SHT31;55581;46.718;7.690;2023-08-24T13:09:35;34.81;39.89
68609;SHT31;55581;46.718;7.690;2023-08-24T13:12:01;35.16;40.99
68609;SHT31;55581;46.718;7.690;2023-08-24T13:14:26;35.20;41.36
68609;SHT31;55581;46.718;7.690;2023-08-24T13:16:52;34.75;41.90
68609;SHT31;55581;46.718;7.690;2023-08-24T13:19:17;34.81;42.07
68609;SHT31;55581;46.718;7.690;2023-08-24T13:21:42;34.89;41.40
68609;SHT31;55581;46.718;7.690;2023-08-24T13:24:10;35.03;41.58
68609;SHT31;55581;46.718;7.690;2023-08-24T13:26:35;35.40;40.80
68609;SHT31;55581;46.718;7.690;2023-08-24T13:29:01;35.58;39.81
68609;SHT31;55581;46.718;7.690;2023-08-24T13:31:26;35.71;40.97
68609;SHT31;55581;46.718;7.690;2023-08-24T13:33:55;35.85;39.39
68609;SHT31;55581;46.718;7.690;2023-08-24T13:36:20;35.95;39.27
68609;SHT31;55581;46.718;7.690;2023-08-24T13:38:48;36.12;38.06
68609;SHT31;55581;46.718;7.690;2023-08-24T13:41:15;36.03;37.62
68609;SHT31;55581;46.718;7.690;2023-08-24T13:43:40;36.22;37.16
68609;SHT31;55581;46.718;7.690;2023-08-24T13:46:07;36.20;37.47
68609;SHT31;55581;46.718;7.690;2023-08-24T13:48:34;36.10;37.70
68609;SHT31;55581;46.718;7.690;2023-08-24T13:51:00;36.03;36.72
68609;SHT31;55581;46.718;7.690;2023-08-24T13:53:26;35.89;37.15
68609;SHT31;55581;46.718;7.690;2023-08-24T13:55:51;35.75;36.53
68609;SHT31;55581;46.718;7.690;2023-08-24T13:58:17;35.78;37.25
68609;SHT31;55581;46.718;7.690;2023-08-24T14:00:42;35.89;37.11
68609;SHT31;55581;46.718;7.690;2023-08-24T14:03:08;35.74;37.37
68609;SHT31;55581;46.718;7.690;2023-08-24T14:05:38;35.93;37.96
68609;SHT31;55581;46.718;7.690;2023-08-24T14:08:06;36.09;37.36
68609;SHT31;55581;46.718;7.690;2023-08-24T14:10:33;36.22;37.53
68609;SHT31;55581;46.718;7.690;2023-08-24T14:12:58;36.13;37.29
68609;SHT31;55581;46.718;7.690;2023-08-24T14:15:24;36.09;37.40
68609;SHT31;55581;46.718;7.690;2023-08-24T14:17:51;36.13;38.01
68609;SHT31;55581;46.718;7.690;2023-08-24T14:20:17;36.10;38.16
68609;SHT31;55581;46.718;7.690;2023-08-24T14:22:42;36.18;39.04
68609;SHT31;55581;46.718;7.690;2023-08-24T14:25:11;35.99;39.32
68609;SHT31;55581;46.718;7.690;2023-08-24T14:27:36;36.15;37.34
68609;SHT31;55581;46.718;7.690;2023-08-24T14:30:04;36.18;35.83
68609;SHT31;55581;46.718;7.690;2023-08-24T14:32:29;36.25;37.05
68609;SHT31;55581;46.718;7.690;2023-08-24T14:34:55;36.32;36.62
68609;SHT31;55581;46.718;7.690;2023-08-24T14:37:20;36.25;36.86
68609;SHT31;55581;46.718;7.690;2023-08-24T14:39:46;36.39;36.24
68609;SHT31;55581;46.718;7.690;2023-08-24T14:42:11;36.61;36.73
68609;SHT31;55581;46.718;7.690;2023-08-24T14:44:36;36.55;36.64
68609;SHT31;55581;46.718;7.690;2023-08-24T14:47:02;36.67;37.15
68609;SHT31;55581;46.718;7.690;2023-08-24T14:49:27;36.37;37.49
68609;SHT31;55581;46.718;7.690;2023-08-24T14:51:53;36.47;35.80
68609;SHT31;55581;46.718;7.690;2023-08-24T14:54:21;36.35;37.39
68609;SHT31;55581;46.718;7.690;2023-08-24T14:56:51;36.51;35.94
68609;SHT31;55581;46.718;7.690;2023-08-24T14:59:19;36.57;36.21
68609;SHT31;55581;46.718;7.690;2023-08-24T15:01:44;36.61;36.97
68609;SHT31;55581;46.718;7.690;2023-08-24T15:04:12;36.74;36.29
68609;SHT31;55581;46.718;7.690;2023-08-24T15:06:38;36.60;35.99
68609;SHT31;55581;46.718;7.690;2023-08-24T15:09:03;36.73;36.14
68609;SHT31;55581;46.718;7.690;2023-08-24T15:11:29;36.55;36.17
68609;SHT31;55581;46.718;7.690;2023-08-24T15:13:54;36.39;36.16
68609;SHT31;55581;46.718;7.690;2023-08-24T15:16:24;36.19;37.33
68609;SHT31;55581;46.718;7.690;2023-08-24T15:18:50;35.88;37.15
68609;SHT31;55581;46.718;7.690;2023-08-24T15:21:15;35.84;38.06
68609;SHT31;55581;46.718;7.690;2023-08-24T15:23:43;35.71;38.57
68609;SHT31;55581;46.718;7.690;2023-08-24T15:26:09;35.64;39.19
68609;SHT31;55581;46.718;7.690;2023-08-24T15:29:14;35.66;38.98
68609;SHT31;55581;46.718;7.690;2023-08-24T15:31:43;35.23;43.30
68609;SHT31;55581;46.718;7.690;2023-08-24T15:34:09;34.59;45.92
68609;SHT31;55581;46.718;7.690;2023-08-24T15:36:38;34.35;46.26
68609;SHT31;55581;46.718;7.690;2023-08-24T15:39:04;34.00;46.51
68609;SHT31;55581;46.718;7.690;2023-08-24T15:41:30;34.00;47.20
68609;SHT31;55581;46.718;7.690;2023-08-24T15:43:55;34.16;41.99
68609;SHT31;55581;46.718;7.690;2023-08-24T15:46:21;34.38;40.80
68609;SHT31;55581;46.718;7.690;2023-08-24T15:48:49;34.45;40.37
68609;SHT31;55581;46.718;7.690;2023-08-24T15:51:16;34.54;41.63
68609;SHT31;55581;46.718;7.690;2023-08-24T15:53:41;34.48;41.64
68609;SHT31;55581;46.718;7.690;2023-08-24T15:56:07;34.17;43.26